|
公历农历对照

机场天气预报 (TAF)

机场天气预报 (TAF) 载述关于某个机场在预测期内预料会出现的气象要素。

香港天文台在 17 年 08 月 23 日 19 时 00 分最新发出的香港国际机场天气预报

TAF VHHH 231100Z 2312/2418 14010KT 7000 FEW015 SCT025 TX31/2406Z TN26/2322Z TEMPO 2315/2324 3500 SHRA FEW010CB SCT020=

(下次更新时间:17年08月24日01时00分)

机场天气预报电码经解码后:-

香港天文台发出 2017 年 08 月 23 日 12 协调世界时 至 2017 年 08 月 24 日 18 协调世界时 的机场天气预报:
 

时间(协调世界时) 能见度 天气状况 云层 云层高度
2017 年 08 月 23 日 12 时 至 2017 年 08 月 24 日 18 时 东南风 (140 o) 10 海里/小时 7 公里 无重要天气状况
1-2
3-4
1500 呎
2500 呎
2017 年 08 月 23 日 15 时 至 24 时 期间间中 东南风 (140 o) 10 海里/小时 3500 米 骤雨
1-2 积雨云
3-4
1000 呎
2000 呎

时间(协调世界时) 气温
2017 年 08 月 24 日 06 时
最高31 oC
2017 年 08 月 23 日 22 时
最低26 oC

份: 云层是以估计天空被云遮蔽之总面积来评定。把天空分为八份,1 份即是八份之一的天空被云遮蔽,2 份即是八份之二的天空被云遮蔽,如此类推。
  0 份 = 天朗气清,1-2 份 = 稀薄云层,3-4 份 = 零散云层,5-7 份 = 疏松云层,8 份 = 天色阴暗。
若想进一步了解机场天气预报(TAF)的编码,请参看剖析TAF电码的意义
若想进一步了解云,请参看香港常见的云
 
香港国际机场航空天气报告资料 本港地区航空天气预报
 
版权及声明